sensor_id;sensor_type;location;lat;lon;timestamp;temperature;humidity
45096;DHT22;30858;51.108;8.068;2023-04-06T00:01:02;-0.60;99.90
45096;DHT22;30858;51.108;8.068;2023-04-06T00:03:28;-0.50;99.90
45096;DHT22;30858;51.108;8.068;2023-04-06T00:05:53;-0.50;99.90
45096;DHT22;30858;51.108;8.068;2023-04-06T00:08:19;-0.50;99.90
45096;DHT22;30858;51.108;8.068;2023-04-06T00:10:46;-0.50;99.90
45096;DHT22;30858;51.108;8.068;2023-04-06T00:13:12;-0.50;99.90
45096;DHT22;30858;51.108;8.068;2023-04-06T00:15:37;-0.50;99.90
45096;DHT22;30858;51.108;8.068;2023-04-06T00:18:03;-0.50;99.90
45096;DHT22;30858;51.108;8.068;2023-04-06T00:20:29;-0.50;99.90
45096;DHT22;30858;51.108;8.068;2023-04-06T00:22:55;-0.50;99.90
45096;DHT22;30858;51.108;8.068;2023-04-06T00:25:20;-0.60;99.90
45096;DHT22;30858;51.108;8.068;2023-04-06T00:27:46;-0.60;99.90
45096;DHT22;30858;51.108;8.068;2023-04-06T00:30:12;-0.60;99.90
45096;DHT22;30858;51.108;8.068;2023-04-06T00:32:37;-0.70;99.90
45096;DHT22;30858;51.108;8.068;2023-04-06T00:35:03;-0.80;99.90
45096;DHT22;30858;51.108;8.068;2023-04-06T00:37:29;-0.90;99.90
45096;DHT22;30858;51.108;8.068;2023-04-06T00:39:54;-0.90;99.90
45096;DHT22;30858;51.108;8.068;2023-04-06T00:42:21;-0.90;99.90
45096;DHT22;30858;51.108;8.068;2023-04-06T00:44:55;-0.90;99.90
45096;DHT22;30858;51.108;8.068;2023-04-06T00:47:21;-0.90;99.90
45096;DHT22;30858;51.108;8.068;2023-04-06T00:49:48;-0.90;99.90
45096;DHT22;30858;51.108;8.068;2023-04-06T00:52:13;-0.90;99.90
45096;DHT22;30858;51.108;8.068;2023-04-06T00:54:39;-0.90;99.90
45096;DHT22;30858;51.108;8.068;2023-04-06T00:57:04;-0.90;99.90
45096;DHT22;30858;51.108;8.068;2023-04-06T00:59:31;-0.90;99.90
45096;DHT22;30858;51.108;8.068;2023-04-06T01:01:57;-0.90;99.90
45096;DHT22;30858;51.108;8.068;2023-04-06T01:04:22;-1.00;99.90
45096;DHT22;30858;51.108;8.068;2023-04-06T01:06:49;-1.10;99.90
45096;DHT22;30858;51.108;8.068;2023-04-06T01:09:15;-1.10;99.90
45096;DHT22;30858;51.108;8.068;2023-04-06T01:11:41;-1.10;99.90
45096;DHT22;30858;51.108;8.068;2023-04-06T01:14:07;-1.10;99.90
45096;DHT22;30858;51.108;8.068;2023-04-06T01:16:33;-1.20;99.90
45096;DHT22;30858;51.108;8.068;2023-04-06T01:18:59;-1.20;99.90
45096;DHT22;30858;51.108;8.068;2023-04-06T01:21:24;-1.30;99.90
45096;DHT22;30858;51.108;8.068;2023-04-06T01:23:50;-1.40;99.90
45096;DHT22;30858;51.108;8.068;2023-04-06T01:26:16;-1.40;99.90
45096;DHT22;30858;51.108;8.068;2023-04-06T01:28:41;-1.30;99.90
45096;DHT22;30858;51.108;8.068;2023-04-06T01:31:08;-1.10;99.90
45096;DHT22;30858;51.108;8.068;2023-04-06T01:33:33;-1.10;99.90
45096;DHT22;30858;51.108;8.068;2023-04-06T01:35:59;-1.10;99.90
45096;DHT22;30858;51.108;8.068;2023-04-06T01:38:25;-1.20;99.90
45096;DHT22;30858;51.108;8.068;2023-04-06T01:40:51;-1.30;99.90
45096;DHT22;30858;51.108;8.068;2023-04-06T01:43:17;-1.30;99.90
45096;DHT22;30858;51.108;8.068;2023-04-06T01:45:43;-1.30;99.90
45096;DHT22;30858;51.108;8.068;2023-04-06T01:48:08;-1.30;99.90
45096;DHT22;30858;51.108;8.068;2023-04-06T01:50:34;-1.30;99.90
45096;DHT22;30858;51.108;8.068;2023-04-06T01:52:59;-1.20;99.90
45096;DHT22;30858;51.108;8.068;2023-04-06T01:55:25;-1.30;99.90
45096;DHT22;30858;51.108;8.068;2023-04-06T01:57:51;-1.30;99.90
45096;DHT22;30858;51.108;8.068;2023-04-06T02:00:16;-1.20;99.90
45096;DHT22;30858;51.108;8.068;2023-04-06T02:02:42;-1.30;99.90
45096;DHT22;30858;51.108;8.068;2023-04-06T02:05:08;-1.20;99.90
45096;DHT22;30858;51.108;8.068;2023-04-06T02:07:34;-1.20;99.90
45096;DHT22;30858;51.108;8.068;2023-04-06T02:09:59;-1.20;99.90
45096;DHT22;30858;51.108;8.068;2023-04-06T02:12:25;-1.30;99.90
45096;DHT22;30858;51.108;8.068;2023-04-06T02:14:51;-1.30;99.90
45096;DHT22;30858;51.108;8.068;2023-04-06T02:17:17;-1.40;99.90
45096;DHT22;30858;51.108;8.068;2023-04-06T02:19:42;-1.50;99.90
45096;DHT22;30858;51.108;8.068;2023-04-06T02:22:08;-1.60;99.90
45096;DHT22;30858;51.108;8.068;2023-04-06T02:24:34;-1.60;99.90
45096;DHT22;30858;51.108;8.068;2023-04-06T02:26:59;-1.70;99.90
45096;DHT22;30858;51.108;8.068;2023-04-06T02:29:25;-1.70;99.90
45096;DHT22;30858;51.108;8.068;2023-04-06T02:31:51;-1.70;99.90
45096;DHT22;30858;51.108;8.068;2023-04-06T02:34:16;-1.60;99.90
45096;DHT22;30858;51.108;8.068;2023-04-06T02:36:44;-1.60;99.90
45096;DHT22;30858;51.108;8.068;2023-04-06T02:39:10;-1.60;99.90
45096;DHT22;30858;51.108;8.068;2023-04-06T02:41:35;-1.60;99.90
45096;DHT22;30858;51.108;8.068;2023-04-06T02:44:01;-1.60;99.90
45096;DHT22;30858;51.108;8.068;2023-04-06T02:46:27;-1.60;99.90
45096;DHT22;30858;51.108;8.068;2023-04-06T02:48:52;-1.60;99.90
45096;DHT22;30858;51.108;8.068;2023-04-06T02:51:18;-1.60;99.90
45096;DHT22;30858;51.108;8.068;2023-04-06T02:53:43;-1.60;99.90
45096;DHT22;30858;51.108;8.068;2023-04-06T02:56:09;-1.60;99.90
45096;DHT22;30858;51.108;8.068;2023-04-06T02:58:34;-1.60;99.90
45096;DHT22;30858;51.108;8.068;2023-04-06T03:01:00;-1.70;99.90
45096;DHT22;30858;51.108;8.068;2023-04-06T03:03:25;-1.70;99.90
45096;DHT22;30858;51.108;8.068;2023-04-06T03:05:51;-1.70;99.90
45096;DHT22;30858;51.108;8.068;2023-04-06T03:08:17;-1.60;99.90
45096;DHT22;30858;51.108;8.068;2023-04-06T03:10:42;-1.60;99.90
45096;DHT22;30858;51.108;8.068;2023-04-06T03:13:08;-1.70;99.90
45096;DHT22;30858;51.108;8.068;2023-04-06T03:15:33;-1.60;99.90
45096;DHT22;30858;51.108;8.068;2023-04-06T03:17:58;-1.70;99.90
45096;DHT22;30858;51.108;8.068;2023-04-06T03:20:24;-1.60;99.90
45096;DHT22;30858;51.108;8.068;2023-04-06T03:22:50;-1.70;99.90
45096;DHT22;30858;51.108;8.068;2023-04-06T03:25:15;-1.90;99.90
45096;DHT22;30858;51.108;8.068;2023-04-06T03:27:41;-2.00;99.90
45096;DHT22;30858;51.108;8.068;2023-04-06T03:30:06;-2.10;99.90
45096;DHT22;30858;51.108;8.068;2023-04-06T03:32:32;-2.10;99.90
45096;DHT22;30858;51.108;8.068;2023-04-06T03:34:57;-2.20;99.90
45096;DHT22;30858;51.108;8.068;2023-04-06T03:37:23;-2.20;99.90
45096;DHT22;30858;51.108;8.068;2023-04-06T03:39:48;-2.20;99.90
45096;DHT22;30858;51.108;8.068;2023-04-06T03:42:14;-2.30;99.90
45096;DHT22;30858;51.108;8.068;2023-04-06T03:44:40;-2.40;99.90
45096;DHT22;30858;51.108;8.068;2023-04-06T03:47:05;-2.30;99.90
45096;DHT22;30858;51.108;8.068;2023-04-06T03:49:31;-2.40;99.90
45096;DHT22;30858;51.108;8.068;2023-04-06T03:51:57;-2.30;99.90
45096;DHT22;30858;51.108;8.068;2023-04-06T03:54:22;-2.40;99.90
45096;DHT22;30858;51.108;8.068;2023-04-06T03:56:48;-2.20;99.90
45096;DHT22;30858;51.108;8.068;2023-04-06T03:59:13;-2.10;99.90
45096;DHT22;30858;51.108;8.068;2023-04-06T04:01:39;-2.10;99.90
45096;DHT22;30858;51.108;8.068;2023-04-06T04:04:04;-2.00;99.90
45096;DHT22;30858;51.108;8.068;2023-04-06T04:06:30;-2.00;99.90
45096;DHT22;30858;51.108;8.068;2023-04-06T04:08:56;-2.10;99.90
45096;DHT22;30858;51.108;8.068;2023-04-06T04:11:21;-2.10;99.90
45096;DHT22;30858;51.108;8.068;2023-04-06T04:13:47;-2.10;99.90
45096;DHT22;30858;51.108;8.068;2023-04-06T04:16:12;-2.20;99.90
45096;DHT22;30858;51.108;8.068;2023-04-06T04:18:38;-2.20;99.90
45096;DHT22;30858;51.108;8.068;2023-04-06T04:21:03;-2.30;99.90
45096;DHT22;30858;51.108;8.068;2023-04-06T04:23:29;-2.30;99.90
45096;DHT22;30858;51.108;8.068;2023-04-06T04:25:55;-2.40;99.90
45096;DHT22;30858;51.108;8.068;2023-04-06T04:28:20;-2.40;99.90
45096;DHT22;30858;51.108;8.068;2023-04-06T04:30:46;-2.70;99.90
45096;DHT22;30858;51.108;8.068;2023-04-06T04:33:12;-2.50;99.90
45096;DHT22;30858;51.108;8.068;2023-04-06T04:35:37;-2.50;99.90
45096;DHT22;30858;51.108;8.068;2023-04-06T04:38:02;-2.60;99.90
45096;DHT22;30858;51.108;8.068;2023-04-06T04:40:28;-2.60;99.90
45096;DHT22;30858;51.108;8.068;2023-04-06T04:42:54;-2.60;99.90
45096;DHT22;30858;51.108;8.068;2023-04-06T04:45:19;-2.60;99.90
45096;DHT22;30858;51.108;8.068;2023-04-06T04:47:45;-2.60;99.90
45096;DHT22;30858;51.108;8.068;2023-04-06T04:50:10;-2.60;99.90
45096;DHT22;30858;51.108;8.068;2023-04-06T04:52:37;-2.50;99.90
45096;DHT22;30858;51.108;8.068;2023-04-06T04:55:03;-2.40;99.90
45096;DHT22;30858;51.108;8.068;2023-04-06T04:57:29;-2.40;99.90
45096;DHT22;30858;51.108;8.068;2023-04-06T04:59:54;-2.40;99.90
45096;DHT22;30858;51.108;8.068;2023-04-06T05:02:20;-2.40;99.90
45096;DHT22;30858;51.108;8.068;2023-04-06T05:04:45;-2.40;99.90
45096;DHT22;30858;51.108;8.068;2023-04-06T05:07:11;-2.40;99.90
45096;DHT22;30858;51.108;8.068;2023-04-06T05:09:36;-2.40;99.90
45096;DHT22;30858;51.108;8.068;2023-04-06T05:12:02;-2.40;99.90
45096;DHT22;30858;51.108;8.068;2023-04-06T05:14:28;-2.30;99.90
45096;DHT22;30858;51.108;8.068;2023-04-06T05:16:53;-2.30;99.90
45096;DHT22;30858;51.108;8.068;2023-04-06T05:19:19;-2.20;99.90
45096;DHT22;30858;51.108;8.068;2023-04-06T05:21:45;-2.20;99.90
45096;DHT22;30858;51.108;8.068;2023-04-06T05:24:11;-2.10;99.90
45096;DHT22;30858;51.108;8.068;2023-04-06T05:26:36;-2.00;99.90
45096;DHT22;30858;51.108;8.068;2023-04-06T05:29:02;-2.00;99.90
45096;DHT22;30858;51.108;8.068;2023-04-06T05:31:28;-2.00;99.90
45096;DHT22;30858;51.108;8.068;2023-04-06T05:33:54;-1.90;99.90
45096;DHT22;30858;51.108;8.068;2023-04-06T05:36:19;-1.90;99.90
45096;DHT22;30858;51.108;8.068;2023-04-06T05:38:45;-1.80;99.90
45096;DHT22;30858;51.108;8.068;2023-04-06T05:41:11;-1.80;99.90
45096;DHT22;30858;51.108;8.068;2023-04-06T05:43:36;-1.80;99.90
45096;DHT22;30858;51.108;8.068;2023-04-06T05:46:02;-1.80;99.90
45096;DHT22;30858;51.108;8.068;2023-04-06T05:48:28;-1.70;99.90
45096;DHT22;30858;51.108;8.068;2023-04-06T05:50:54;-1.70;99.90
45096;DHT22;30858;51.108;8.068;2023-04-06T05:53:19;-1.80;99.90
45096;DHT22;30858;51.108;8.068;2023-04-06T05:55:46;-1.70;99.90
45096;DHT22;30858;51.108;8.068;2023-04-06T05:58:12;-1.70;99.90
45096;DHT22;30858;51.108;8.068;2023-04-06T06:00:37;-1.70;99.90
45096;DHT22;30858;51.108;8.068;2023-04-06T06:03:03;-1.60;99.90
45096;DHT22;30858;51.108;8.068;2023-04-06T06:05:34;-1.60;99.90
45096;DHT22;30858;51.108;8.068;2023-04-06T06:07:59;-1.50;99.90
45096;DHT22;30858;51.108;8.068;2023-04-06T06:10:27;-1.40;99.90
45096;DHT22;30858;51.108;8.068;2023-04-06T06:12:53;-1.20;99.90
45096;DHT22;30858;51.108;8.068;2023-04-06T06:15:18;-0.90;99.90
45096;DHT22;30858;51.108;8.068;2023-04-06T06:17:44;-0.70;99.90
45096;DHT22;30858;51.108;8.068;2023-04-06T06:20:10;-0.40;99.90
45096;DHT22;30858;51.108;8.068;2023-04-06T06:22:35;-0.30;99.90
45096;DHT22;30858;51.108;8.068;2023-04-06T06:25:02;-0.40;99.90
45096;DHT22;30858;51.108;8.068;2023-04-06T06:27:27;-0.20;99.90
45096;DHT22;30858;51.108;8.068;2023-04-06T06:29:53;0.00;99.90
45096;DHT22;30858;51.108;8.068;2023-04-06T06:32:18;0.10;99.90
45096;DHT22;30858;51.108;8.068;2023-04-06T06:34:44;0.30;99.90
45096;DHT22;30858;51.108;8.068;2023-04-06T06:37:10;0.50;99.90
45096;DHT22;30858;51.108;8.068;2023-04-06T06:39:35;0.60;99.90
45096;DHT22;30858;51.108;8.068;2023-04-06T06:42:01;0.70;99.90
45096;DHT22;30858;51.108;8.068;2023-04-06T06:44:27;0.90;99.90
45096;DHT22;30858;51.108;8.068;2023-04-06T06:46:53;1.00;99.90
45096;DHT22;30858;51.108;8.068;2023-04-06T06:49:19;1.20;99.90
45096;DHT22;30858;51.108;8.068;2023-04-06T06:51:44;1.30;99.90
45096;DHT22;30858;51.108;8.068;2023-04-06T06:54:11;1.60;99.90
45096;DHT22;30858;51.108;8.068;2023-04-06T06:56:38;1.70;99.90
45096;DHT22;30858;51.108;8.068;2023-04-06T06:59:04;1.80;99.90
45096;DHT22;30858;51.108;8.068;2023-04-06T07:01:34;1.80;99.90
45096;DHT22;30858;51.108;8.068;2023-04-06T07:04:00;2.00;99.90
45096;DHT22;30858;51.108;8.068;2023-04-06T07:06:25;2.20;99.90
45096;DHT22;30858;51.108;8.068;2023-04-06T07:08:51;2.40;99.90
45096;DHT22;30858;51.108;8.068;2023-04-06T07:11:16;2.70;99.90
45096;DHT22;30858;51.108;8.068;2023-04-06T07:13:42;2.80;99.90
45096;DHT22;30858;51.108;8.068;2023-04-06T07:16:08;2.90;99.90
45096;DHT22;30858;51.108;8.068;2023-04-06T07:18:33;3.00;99.90
45096;DHT22;30858;51.108;8.068;2023-04-06T07:20:59;3.30;99.90
45096;DHT22;30858;51.108;8.068;2023-04-06T07:23:25;3.30;99.90
45096;DHT22;30858;51.108;8.068;2023-04-06T07:25:50;3.40;99.90
45096;DHT22;30858;51.108;8.068;2023-04-06T07:28:17;3.60;99.90
45096;DHT22;30858;51.108;8.068;2023-04-06T07:30:43;3.60;99.90
45096;DHT22;30858;51.108;8.068;2023-04-06T07:33:08;3.70;99.90
45096;DHT22;30858;51.108;8.068;2023-04-06T07:35:34;3.90;99.90
45096;DHT22;30858;51.108;8.068;2023-04-06T07:38:01;4.10;99.90
45096;DHT22;30858;51.108;8.068;2023-04-06T07:40:27;4.30;99.90
45096;DHT22;30858;51.108;8.068;2023-04-06T07:42:53;4.50;99.90
45096;DHT22;30858;51.108;8.068;2023-04-06T07:45:18;4.60;99.90
45096;DHT22;30858;51.108;8.068;2023-04-06T07:47:44;4.90;99.90
45096;DHT22;30858;51.108;8.068;2023-04-06T07:50:10;5.40;99.90
45096;DHT22;30858;51.108;8.068;2023-04-06T07:52:35;5.70;99.90
45096;DHT22;30858;51.108;8.068;2023-04-06T07:55:01;5.90;99.90
45096;DHT22;30858;51.108;8.068;2023-04-06T07:57:26;6.50;99.90
45096;DHT22;30858;51.108;8.068;2023-04-06T07:59:52;7.00;99.90
45096;DHT22;30858;51.108;8.068;2023-04-06T08:02:18;7.40;99.90
45096;DHT22;30858;51.108;8.068;2023-04-06T08:04:44;7.60;99.90
45096;DHT22;30858;51.108;8.068;2023-04-06T08:07:09;7.80;99.90
45096;DHT22;30858;51.108;8.068;2023-04-06T08:09:35;8.00;99.90
45096;DHT22;30858;51.108;8.068;2023-04-06T08:12:01;8.20;99.90
45096;DHT22;30858;51.108;8.068;2023-04-06T08:14:26;8.40;99.90
45096;DHT22;30858;51.108;8.068;2023-04-06T08:16:52;8.50;99.90
45096;DHT22;30858;51.108;8.068;2023-04-06T08:19:17;8.40;99.90
45096;DHT22;30858;51.108;8.068;2023-04-06T08:21:47;8.50;99.90
45096;DHT22;30858;51.108;8.068;2023-04-06T08:24:13;8.60;99.90
45096;DHT22;30858;51.108;8.068;2023-04-06T08:26:39;8.70;99.90
45096;DHT22;30858;51.108;8.068;2023-04-06T08:29:04;8.90;99.90
45096;DHT22;30858;51.108;8.068;2023-04-06T08:31:35;9.00;99.90
45096;DHT22;30858;51.108;8.068;2023-04-06T08:34:03;9.10;99.90
45096;DHT22;30858;51.108;8.068;2023-04-06T08:36:28;9.20;99.70
45096;DHT22;30858;51.108;8.068;2023-04-06T08:38:54;9.20;99.90
45096;DHT22;30858;51.108;8.068;2023-04-06T08:41:20;9.60;99.90
45096;DHT22;30858;51.108;8.068;2023-04-06T08:43:56;9.80;98.90
45096;DHT22;30858;51.108;8.068;2023-04-06T08:46:22;10.00;98.00
45096;DHT22;30858;51.108;8.068;2023-04-06T08:48:54;10.20;98.30
45096;DHT22;30858;51.108;8.068;2023-04-06T08:51:20;10.40;97.80
45096;DHT22;30858;51.108;8.068;2023-04-06T08:56:14;10.40;96.50
45096;DHT22;30858;51.108;8.068;2023-04-06T08:58:41;10.80;96.20
45096;DHT22;30858;51.108;8.068;2023-04-06T09:01:08;11.00;96.00
45096;DHT22;30858;51.108;8.068;2023-04-06T09:03:37;11.00;95.90
45096;DHT22;30858;51.108;8.068;2023-04-06T09:06:05;10.70;95.50
45096;DHT22;30858;51.108;8.068;2023-04-06T09:08:35;11.00;95.70
45096;DHT22;30858;51.108;8.068;2023-04-06T09:11:04;11.10;94.70
45096;DHT22;30858;51.108;8.068;2023-04-06T09:13:30;11.20;94.40
45096;DHT22;30858;51.108;8.068;2023-04-06T09:16:03;11.40;94.30
45096;DHT22;30858;51.108;8.068;2023-04-06T09:18:30;11.10;94.00
45096;DHT22;30858;51.108;8.068;2023-04-06T09:21:04;11.50;93.90
45096;DHT22;30858;51.108;8.068;2023-04-06T09:23:30;11.90;93.70
45096;DHT22;30858;51.108;8.068;2023-04-06T09:26:15;12.30;93.10
45096;DHT22;30858;51.108;8.068;2023-04-06T09:28:56;12.40;93.00
45096;DHT22;30858;51.108;8.068;2023-04-06T09:31:27;12.80;92.30
45096;DHT22;30858;51.108;8.068;2023-04-06T09:33:53;12.60;91.90
45096;DHT22;30858;51.108;8.068;2023-04-06T09:36:20;12.50;91.00
45096;DHT22;30858;51.108;8.068;2023-04-06T09:38:56;12.70;90.80
45096;DHT22;30858;51.108;8.068;2023-04-06T09:41:23;13.10;91.10
45096;DHT22;30858;51.108;8.068;2023-04-06T09:44:01;12.70;90.10
45096;DHT22;30858;51.108;8.068;2023-04-06T09:46:27;12.10;90.50
45096;DHT22;30858;51.108;8.068;2023-04-06T09:48:56;12.30;90.10
45096;DHT22;30858;51.108;8.068;2023-04-06T09:51:22;12.40;90.60
45096;DHT22;30858;51.108;8.068;2023-04-06T09:53:52;12.70;89.90
45096;DHT22;30858;51.108;8.068;2023-04-06T09:56:21;13.00;90.10
45096;DHT22;30858;51.108;8.068;2023-04-06T09:58:49;13.50;89.10
45096;DHT22;30858;51.108;8.068;2023-04-06T10:01:18;13.60;87.50
45096;DHT22;30858;51.108;8.068;2023-04-06T10:04:04;13.30;86.80
45096;DHT22;30858;51.108;8.068;2023-04-06T10:06:33;13.20;87.80
45096;DHT22;30858;51.108;8.068;2023-04-06T10:09:02;13.60;88.80
45096;DHT22;30858;51.108;8.068;2023-04-06T10:11:30;14.20;86.20
45096;DHT22;30858;51.108;8.068;2023-04-06T10:13:56;14.00;84.20
45096;DHT22;30858;51.108;8.068;2023-04-06T10:16:22;14.20;84.30
45096;DHT22;30858;51.108;8.068;2023-04-06T10:18:53;14.20;81.40
45096;DHT22;30858;51.108;8.068;2023-04-06T10:21:22;14.20;79.90
45096;DHT22;30858;51.108;8.068;2023-04-06T10:23:54;13.90;80.10
45096;DHT22;30858;51.108;8.068;2023-04-06T10:26:21;14.10;80.80
45096;DHT22;30858;51.108;8.068;2023-04-06T10:28:48;14.30;80.20
45096;DHT22;30858;51.108;8.068;2023-04-06T10:31:14;14.80;79.40
45096;DHT22;30858;51.108;8.068;2023-04-06T10:33:40;15.10;77.60
45096;DHT22;30858;51.108;8.068;2023-04-06T10:36:12;15.40;77.80
45096;DHT22;30858;51.108;8.068;2023-04-06T10:38:39;15.50;76.80
45096;DHT22;30858;51.108;8.068;2023-04-06T10:41:06;15.80;79.10
45096;DHT22;30858;51.108;8.068;2023-04-06T10:43:37;15.70;76.20
45096;DHT22;30858;51.108;8.068;2023-04-06T10:46:04;14.80;76.80
45096;DHT22;30858;51.108;8.068;2023-04-06T10:48:38;14.50;78.90
45096;DHT22;30858;51.108;8.068;2023-04-06T10:51:11;14.40;79.80
45096;DHT22;30858;51.108;8.068;2023-04-06T10:53:37;15.00;79.40
45096;DHT22;30858;51.108;8.068;2023-04-06T10:56:04;15.00;78.70
45096;DHT22;30858;51.108;8.068;2023-04-06T10:58:34;14.70;79.60
45096;DHT22;30858;51.108;8.068;2023-04-06T11:00:59;14.00;80.90
45096;DHT22;30858;51.108;8.068;2023-04-06T11:03:25;14.20;81.90
45096;DHT22;30858;51.108;8.068;2023-04-06T11:05:51;14.30;81.00
45096;DHT22;30858;51.108;8.068;2023-04-06T11:11:07;14.00;79.80
45096;DHT22;30858;51.108;8.068;2023-04-06T11:13:38;14.00;80.90
45096;DHT22;30858;51.108;8.068;2023-04-06T11:16:04;14.30;81.30
45096;DHT22;30858;51.108;8.068;2023-04-06T11:18:30;14.60;80.60
45096;DHT22;30858;51.108;8.068;2023-04-06T11:20:56;14.80;80.30
45096;DHT22;30858;51.108;8.068;2023-04-06T11:23:23;14.50;78.30
45096;DHT22;30858;51.108;8.068;2023-04-06T11:25:53;13.90;78.50
45096;DHT22;30858;51.108;8.068;2023-04-06T11:28:19;14.30;78.90
45096;DHT22;30858;51.108;8.068;2023-04-06T11:30:45;14.10;78.50
45096;DHT22;30858;51.108;8.068;2023-04-06T11:33:20;13.70;79.80
45096;DHT22;30858;51.108;8.068;2023-04-06T11:35:45;13.90;79.40
45096;DHT22;30858;51.108;8.068;2023-04-06T11:38:11;14.30;80.20
45096;DHT22;30858;51.108;8.068;2023-04-06T11:40:37;14.20;80.10
45096;DHT22;30858;51.108;8.068;2023-04-06T11:43:04;14.20;80.30
45096;DHT22;30858;51.108;8.068;2023-04-06T11:45:40;14.10;80.80
45096;DHT22;30858;51.108;8.068;2023-04-06T11:48:06;13.80;80.60
45096;DHT22;30858;51.108;8.068;2023-04-06T11:50:42;13.90;80.60
45096;DHT22;30858;51.108;8.068;2023-04-06T11:53:08;14.00;80.50
45096;DHT22;30858;51.108;8.068;2023-04-06T11:55:37;13.90;78.70
45096;DHT22;30858;51.108;8.068;2023-04-06T11:58:03;14.00;78.20
45096;DHT22;30858;51.108;8.068;2023-04-06T12:00:29;14.60;77.80
45096;DHT22;30858;51.108;8.068;2023-04-06T12:02:59;15.20;77.30
45096;DHT22;30858;51.108;8.068;2023-04-06T12:05:25;14.80;76.80
45096;DHT22;30858;51.108;8.068;2023-04-06T12:07:50;14.90;78.50
45096;DHT22;30858;51.108;8.068;2023-04-06T12:10:16;14.10;78.60
45096;DHT22;30858;51.108;8.068;2023-04-06T12:12:41;14.40;78.60
45096;DHT22;30858;51.108;8.068;2023-04-06T12:15:07;14.10;79.20
45096;DHT22;30858;51.108;8.068;2023-04-06T12:17:33;14.60;79.70
45096;DHT22;30858;51.108;8.068;2023-04-06T12:19:58;14.80;77.00
45096;DHT22;30858;51.108;8.068;2023-04-06T12:22:24;14.50;75.80
45096;DHT22;30858;51.108;8.068;2023-04-06T12:24:50;14.20;76.00
45096;DHT22;30858;51.108;8.068;2023-04-06T12:27:15;14.50;76.70
45096;DHT22;30858;51.108;8.068;2023-04-06T12:29:41;14.50;76.10
45096;DHT22;30858;51.108;8.068;2023-04-06T12:32:07;14.70;76.60
45096;DHT22;30858;51.108;8.068;2023-04-06T12:34:33;14.60;76.50
45096;DHT22;30858;51.108;8.068;2023-04-06T12:36:59;14.90;80.70
45096;DHT22;30858;51.108;8.068;2023-04-06T12:39:25;15.10;77.70
45096;DHT22;30858;51.108;8.068;2023-04-06T12:41:52;15.20;78.80
45096;DHT22;30858;51.108;8.068;2023-04-06T12:44:18;14.50;77.80
45096;DHT22;30858;51.108;8.068;2023-04-06T12:46:43;15.10;77.00
45096;DHT22;30858;51.108;8.068;2023-04-06T12:49:09;15.00;76.90
45096;DHT22;30858;51.108;8.068;2023-04-06T12:51:35;14.80;76.80
45096;DHT22;30858;51.108;8.068;2023-04-06T12:54:00;15.40;79.00
45096;DHT22;30858;51.108;8.068;2023-04-06T12:56:26;15.30;76.40
45096;DHT22;30858;51.108;8.068;2023-04-06T12:58:53;15.70;77.20
45096;DHT22;30858;51.108;8.068;2023-04-06T13:01:18;15.90;77.90
45096;DHT22;30858;51.108;8.068;2023-04-06T13:03:45;15.70;77.70
45096;DHT22;30858;51.108;8.068;2023-04-06T13:06:11;15.00;76.70
45096;DHT22;30858;51.108;8.068;2023-04-06T13:08:37;14.70;76.80
45096;DHT22;30858;51.108;8.068;2023-04-06T13:11:03;14.40;78.50
45096;DHT22;30858;51.108;8.068;2023-04-06T13:13:30;14.60;80.40
45096;DHT22;30858;51.108;8.068;2023-04-06T13:16:00;14.20;81.10
45096;DHT22;30858;51.108;8.068;2023-04-06T13:18:28;14.40;82.00
45096;DHT22;30858;51.108;8.068;2023-04-06T13:20:53;14.60;82.40
45096;DHT22;30858;51.108;8.068;2023-04-06T13:23:20;14.70;81.00
45096;DHT22;30858;51.108;8.068;2023-04-06T13:25:46;14.60;81.50
45096;DHT22;30858;51.108;8.068;2023-04-06T13:28:11;14.40;81.60
45096;DHT22;30858;51.108;8.068;2023-04-06T13:30:38;14.60;81.40
45096;DHT22;30858;51.108;8.068;2023-04-06T13:33:03;14.40;80.90
45096;DHT22;30858;51.108;8.068;2023-04-06T13:35:30;14.10;80.80
45096;DHT22;30858;51.108;8.068;2023-04-06T13:37:55;14.20;80.20
45096;DHT22;30858;51.108;8.068;2023-04-06T13:40:21;14.20;79.50
45096;DHT22;30858;51.108;8.068;2023-04-06T13:42:47;14.30;80.50
45096;DHT22;30858;51.108;8.068;2023-04-06T13:45:12;14.30;79.20
45096;DHT22;30858;51.108;8.068;2023-04-06T13:47:38;14.40;79.20
45096;DHT22;30858;51.108;8.068;2023-04-06T13:50:04;14.60;79.40
45096;DHT22;30858;51.108;8.068;2023-04-06T13:52:30;14.60;80.30
45096;DHT22;30858;51.108;8.068;2023-04-06T13:54:55;14.40;80.80
45096;DHT22;30858;51.108;8.068;2023-04-06T13:57:21;14.40;80.70
45096;DHT22;30858;51.108;8.068;2023-04-06T13:59:47;14.20;80.10
45096;DHT22;30858;51.108;8.068;2023-04-06T14:02:13;13.80;80.50
45096;DHT22;30858;51.108;8.068;2023-04-06T14:04:38;13.90;81.30
45096;DHT22;30858;51.108;8.068;2023-04-06T14:07:04;14.20;81.00
45096;DHT22;30858;51.108;8.068;2023-04-06T14:09:33;14.30;81.70
45096;DHT22;30858;51.108;8.068;2023-04-06T14:11:58;14.40;81.40
45096;DHT22;30858;51.108;8.068;2023-04-06T14:14:24;14.30;84.20
45096;DHT22;30858;51.108;8.068;2023-04-06T14:16:51;14.60;81.70
45096;DHT22;30858;51.108;8.068;2023-04-06T14:19:17;14.50;80.20
45096;DHT22;30858;51.108;8.068;2023-04-06T14:21:47;14.00;79.60
45096;DHT22;30858;51.108;8.068;2023-04-06T14:24:14;13.90;79.90
45096;DHT22;30858;51.108;8.068;2023-04-06T14:26:40;13.80;80.80
45096;DHT22;30858;51.108;8.068;2023-04-06T14:29:09;13.70;79.70
45096;DHT22;30858;51.108;8.068;2023-04-06T14:31:35;13.70;79.60
45096;DHT22;30858;51.108;8.068;2023-04-06T14:34:02;13.80;80.70
45096;DHT22;30858;51.108;8.068;2023-04-06T14:36:28;13.50;80.40
45096;DHT22;30858;51.108;8.068;2023-04-06T14:38:57;13.50;79.40
45096;DHT22;30858;51.108;8.068;2023-04-06T14:41:23;13.40;80.20
45096;DHT22;30858;51.108;8.068;2023-04-06T14:43:50;13.20;80.40
45096;DHT22;30858;51.108;8.068;2023-04-06T14:46:17;13.00;81.30
45096;DHT22;30858;51.108;8.068;2023-04-06T14:48:43;13.00;81.90
45096;DHT22;30858;51.108;8.068;2023-04-06T14:51:10;12.70;82.70
45096;DHT22;30858;51.108;8.068;2023-04-06T14:53:35;12.80;83.30
45096;DHT22;30858;51.108;8.068;2023-04-06T14:56:01;12.60;84.20
45096;DHT22;30858;51.108;8.068;2023-04-06T14:58:26;12.60;84.30
45096;DHT22;30858;51.108;8.068;2023-04-06T15:00:57;12.60;84.40
45096;DHT22;30858;51.108;8.068;2023-04-06T15:03:26;12.60;84.00
45096;DHT22;30858;51.108;8.068;2023-04-06T15:05:52;12.60;83.60
45096;DHT22;30858;51.108;8.068;2023-04-06T15:08:18;12.40;82.80
45096;DHT22;30858;51.108;8.068;2023-04-06T15:10:46;12.30;82.50
45096;DHT22;30858;51.108;8.068;2023-04-06T15:13:12;12.50;82.20
45096;DHT22;30858;51.108;8.068;2023-04-06T15:15:37;12.60;84.90
45096;DHT22;30858;51.108;8.068;2023-04-06T15:18:03;12.70;83.20
45096;DHT22;30858;51.108;8.068;2023-04-06T15:20:29;12.90;82.40
45096;DHT22;30858;51.108;8.068;2023-04-06T15:22:55;12.90;81.20
45096;DHT22;30858;51.108;8.068;2023-04-06T15:25:21;12.90;80.90
45096;DHT22;30858;51.108;8.068;2023-04-06T15:27:47;12.80;80.70
45096;DHT22;30858;51.108;8.068;2023-04-06T15:30:12;12.30;82.50
45096;DHT22;30858;51.108;8.068;2023-04-06T15:32:38;12.10;83.90